createdAt,value
2023-04-12T00:00:13.403Z,1.17
2023-04-12T00:02:42.184Z,1.85
2023-04-12T00:05:11.261Z,1.38
2023-04-12T00:07:38.390Z,1.45
2023-04-12T00:10:07.983Z,1.30
2023-04-12T00:12:37.903Z,1.75
2023-04-12T00:15:06.728Z,1.02
2023-04-12T00:17:35.168Z,1.35
2023-04-12T00:20:07.538Z,1.38
2023-04-12T00:22:34.497Z,1.90
2023-04-12T00:25:02.302Z,1.55
2023-04-12T00:27:30.341Z,0.80
2023-04-12T00:29:58.271Z,0.93
2023-04-12T00:32:27.227Z,0.93
2023-04-12T00:34:54.992Z,1.57
2023-04-12T00:37:23.078Z,1.08
2023-04-12T00:39:49.974Z,1.27
2023-04-12T00:42:18.808Z,1.33
2023-04-12T00:44:45.816Z,0.68
2023-04-12T00:47:12.947Z,1.00
2023-04-12T00:49:41.427Z,1.30
2023-04-12T00:52:14.929Z,1.10
2023-04-12T00:54:43.210Z,1.42
2023-04-12T00:57:12.149Z,0.82
2023-04-12T00:59:40.894Z,0.95
2023-04-12T01:02:09.615Z,0.90
2023-04-12T01:04:38.020Z,1.30
2023-04-12T01:07:37.261Z,1.58
2023-04-12T01:10:31.062Z,1.13
2023-04-12T01:13:09.750Z,1.05
2023-04-12T01:15:45.486Z,1.60
2023-04-12T01:18:19.743Z,1.30
2023-04-12T01:21:10.688Z,1.30
2023-04-12T01:24:03.984Z,1.33
2023-04-12T01:26:44.351Z,1.40
2023-04-12T01:29:20.938Z,1.20
2023-04-12T01:31:57.978Z,1.13
2023-04-12T01:34:30.037Z,0.90
2023-04-12T01:37:01.238Z,1.50
2023-04-12T01:39:30.807Z,1.25
2023-04-12T01:41:58.801Z,0.70
2023-04-12T01:44:27.692Z,1.00
2023-04-12T01:46:56.052Z,0.73
2023-04-12T01:49:32.885Z,1.40
2023-04-12T01:52:13.308Z,1.08
2023-04-12T01:54:44.465Z,1.52
2023-04-12T01:57:15.068Z,0.98
2023-04-12T01:59:45.442Z,1.55
2023-04-12T02:02:14.958Z,0.77
2023-04-12T02:04:43.375Z,1.80
2023-04-12T02:07:12.708Z,0.70
2023-04-12T02:09:41.592Z,0.90
2023-04-12T02:12:09.565Z,1.00
2023-04-12T02:14:37.549Z,1.00
2023-04-12T02:17:05.531Z,1.20
2023-04-12T02:19:33.903Z,1.08
2023-04-12T02:22:02.187Z,1.25
2023-04-12T02:24:32.014Z,0.52
2023-04-12T02:26:59.370Z,1.23
2023-04-12T02:29:28.216Z,1.30
2023-04-12T02:31:55.063Z,1.00
2023-04-12T02:34:25.762Z,0.87
2023-04-12T02:37:04.673Z,0.63
2023-04-12T02:39:32.222Z,1.50
2023-04-12T02:42:01.664Z,0.80
2023-04-12T02:44:37.694Z,1.00
2023-04-12T02:47:12.905Z,0.73
2023-04-12T02:49:44.194Z,1.17
2023-04-12T02:52:14.452Z,1.10
2023-04-12T02:54:57.274Z,1.08
2023-04-12T02:57:25.490Z,1.85
2023-04-12T02:59:55.234Z,0.63
2023-04-12T03:02:53.905Z,0.82
2023-04-12T03:05:27.326Z,1.50
2023-04-12T03:07:55.758Z,0.75
2023-04-12T03:10:35.937Z,1.80
2023-04-12T03:13:05.106Z,0.65
2023-04-12T03:15:43.721Z,0.90
2023-04-12T03:18:11.748Z,0.43
2023-04-12T03:20:47.523Z,0.70
2023-04-12T03:23:16.068Z,0.50
2023-04-12T03:25:46.208Z,0.45
2023-04-12T03:28:28.553Z,1.10
2023-04-12T03:30:57.353Z,1.27
2023-04-12T03:33:30.316Z,0.83
2023-04-12T03:36:05.462Z,1.88
2023-04-12T03:38:34.343Z,1.30
2023-04-12T03:41:01.648Z,0.95
2023-04-12T03:43:37.531Z,1.20
2023-04-12T03:46:15.597Z,1.13
2023-04-12T03:48:44.650Z,0.70
2023-04-12T03:51:13.127Z,1.07
2023-04-12T03:53:45.279Z,2.50
2023-04-12T03:56:17.215Z,2.00
2023-04-12T03:58:49.235Z,3.95
2023-04-12T04:01:18.259Z,1.40
2023-04-12T04:03:46.915Z,1.23
2023-04-12T04:06:20.308Z,1.65
2023-04-12T04:08:47.234Z,2.60
2023-04-12T04:11:14.752Z,1.08
2023-04-12T04:13:47.116Z,2.10
2023-04-12T04:16:20.352Z,2.20
2023-04-12T04:18:48.089Z,2.85
2023-04-12T04:21:19.731Z,2.03
2023-04-12T04:23:48.514Z,1.10
2023-04-12T04:26:16.939Z,1.13
2023-04-12T04:28:55.719Z,2.03
2023-04-12T04:31:34.230Z,4.05
2023-04-12T04:34:05.718Z,2.90
2023-04-12T04:36:36.915Z,2.25
2023-04-12T04:39:06.567Z,1.90
2023-04-12T04:41:42.325Z,1.40
2023-04-12T04:44:25.734Z,1.50
2023-04-12T04:46:59.120Z,2.78
2023-04-12T04:49:26.204Z,2.25
2023-04-12T04:51:55.418Z,1.50
2023-04-12T04:54:24.515Z,2.92
2023-04-12T04:56:52.494Z,3.53
2023-04-12T04:59:21.556Z,6.72
2023-04-12T05:01:51.523Z,5.53
2023-04-12T05:04:18.572Z,6.57
2023-04-12T05:06:46.661Z,4.65
2023-04-12T05:09:17.389Z,5.20
2023-04-12T05:11:50.882Z,5.43
2023-04-12T05:14:19.117Z,5.65
2023-04-12T05:16:46.043Z,5.80
2023-04-12T05:19:14.155Z,11.20
2023-04-12T05:21:41.934Z,3.83
2023-04-12T05:24:11.606Z,7.30
2023-04-12T05:26:39.708Z,4.75
2023-04-12T05:29:13.381Z,3.47
2023-04-12T05:31:43.258Z,3.25
2023-04-12T05:34:17.559Z,5.25
2023-04-12T05:36:51.863Z,5.43
2023-04-12T05:39:20.702Z,4.73
2023-04-12T05:41:49.794Z,5.60
2023-04-12T05:44:18.894Z,6.25
2023-04-12T05:46:47.023Z,7.72
2023-04-12T05:49:16.205Z,4.10
2023-04-12T05:51:43.264Z,5.53
2023-04-12T05:54:21.144Z,6.13
2023-04-12T05:56:54.391Z,4.05
2023-04-12T05:59:22.626Z,4.03
2023-04-12T06:01:50.498Z,2.90
2023-04-12T06:04:46.662Z,2.97
2023-04-12T06:07:19.310Z,4.68
2023-04-12T06:09:46.213Z,3.28
2023-04-12T06:12:14.319Z,4.32
2023-04-12T06:14:41.280Z,3.00
2023-04-12T06:17:08.802Z,3.67
2023-04-12T06:19:35.846Z,2.95
2023-04-12T06:22:03.693Z,2.60
2023-04-12T06:24:31.868Z,4.70
2023-04-12T06:27:01.909Z,2.72
2023-04-12T06:29:28.957Z,2.92
2023-04-12T06:31:56.913Z,4.15
2023-04-12T06:34:24.757Z,2.70
2023-04-12T06:36:57.458Z,3.13
2023-04-12T06:39:24.234Z,4.68
2023-04-12T06:41:51.030Z,4.38
2023-04-12T06:44:21.332Z,2.20
2023-04-12T06:46:48.178Z,2.08
2023-04-12T06:49:16.045Z,3.30
2023-04-12T06:51:44.612Z,3.88
2023-04-12T06:54:13.643Z,2.00
2023-04-12T06:56:41.601Z,3.42
2023-04-12T06:59:09.120Z,2.45
2023-04-12T07:01:36.157Z,2.25
2023-04-12T07:04:04.354Z,1.80
2023-04-12T07:06:31.483Z,1.77
2023-04-12T07:08:59.542Z,2.55
2023-04-12T07:11:27.825Z,1.77
2023-04-12T07:13:59.113Z,2.92
2023-04-12T07:16:26.071Z,3.20
2023-04-12T07:18:53.006Z,2.47
2023-04-12T07:21:21.012Z,3.00
2023-04-12T07:23:51.104Z,2.38
2023-04-12T07:26:19.431Z,3.87
2023-04-12T07:28:47.696Z,3.05
2023-04-12T07:31:14.487Z,2.20
2023-04-12T07:33:42.981Z,2.40
2023-04-12T07:36:11.138Z,2.05
2023-04-12T07:38:38.109Z,2.97
2023-04-12T07:41:06.018Z,2.37
2023-04-12T07:43:32.918Z,2.60
2023-04-12T07:46:04.472Z,2.53
2023-04-12T07:48:33.465Z,1.88
2023-04-12T07:51:00.624Z,2.85
2023-04-12T07:53:28.661Z,2.38
2023-04-12T07:55:56.003Z,2.55
2023-04-12T07:58:24.448Z,3.17
2023-04-12T08:00:54.499Z,3.17
2023-04-12T08:03:21.534Z,3.33
2023-04-12T08:05:53.743Z,2.40
2023-04-12T08:08:22.171Z,2.20
2023-04-12T08:10:49.712Z,2.38
2023-04-12T08:13:16.570Z,3.80
2023-04-12T08:15:47.580Z,1.65
2023-04-12T08:18:14.780Z,2.75
2023-04-12T08:20:42.147Z,1.80
2023-04-12T08:23:09.370Z,2.15
2023-04-12T08:25:36.474Z,1.92
2023-04-12T08:28:03.929Z,3.33
2023-04-12T08:30:31.106Z,1.73
2023-04-12T08:32:58.114Z,3.72
2023-04-12T08:35:25.047Z,1.63
2023-04-12T08:37:52.258Z,2.10
2023-04-12T08:40:21.757Z,2.35
2023-04-12T08:42:48.757Z,4.18
2023-04-12T08:45:15.582Z,2.58
2023-04-12T08:47:44.098Z,2.25
2023-04-12T08:50:14.133Z,3.67
2023-04-12T08:52:42.780Z,2.10
2023-04-12T08:55:11.069Z,2.00
2023-04-12T08:57:41.107Z,3.70
2023-04-12T09:00:09.692Z,1.95
2023-04-12T09:02:38.008Z,2.20
2023-04-12T09:05:06.531Z,2.50
2023-04-12T09:07:34.092Z,2.80
2023-04-12T09:10:01.335Z,2.78
2023-04-12T09:12:28.286Z,2.42
2023-04-12T09:15:13.304Z,3.13
2023-04-12T09:17:42.081Z,2.42
2023-04-12T09:20:18.272Z,2.08
2023-04-12T09:22:46.657Z,2.60
2023-04-12T09:25:14.661Z,2.67
2023-04-12T09:27:52.776Z,3.35
2023-04-12T09:30:21.183Z,2.30
2023-04-12T09:32:51.004Z,3.45
2023-04-12T09:35:18.495Z,2.42
2023-04-12T09:37:46.684Z,2.90
2023-04-12T09:40:13.999Z,3.00
2023-04-12T09:42:54.001Z,2.92
2023-04-12T09:45:26.368Z,3.28
2023-04-12T09:47:54.712Z,2.37
2023-04-12T09:50:28.675Z,2.47
2023-04-12T09:52:57.055Z,2.67
2023-04-12T09:55:26.067Z,2.07
2023-04-12T09:57:54.287Z,1.90
2023-04-12T10:00:26.744Z,2.40
2023-04-12T10:02:56.245Z,2.30
2023-04-12T10:05:26.348Z,2.45
2023-04-12T10:07:55.007Z,3.20
2023-04-12T10:10:23.314Z,2.20
2023-04-12T10:12:50.749Z,2.05
2023-04-12T10:15:18.601Z,1.42
2023-04-12T10:17:54.043Z,2.13
2023-04-12T10:20:23.354Z,1.73
2023-04-12T10:22:53.288Z,1.42
2023-04-12T10:25:27.731Z,2.00
2023-04-12T10:27:55.940Z,1.40
2023-04-12T10:30:25.383Z,1.90
2023-04-12T10:33:10.178Z,2.05
2023-04-12T10:35:50.804Z,1.80
2023-04-12T10:38:17.840Z,2.45
2023-04-12T10:41:07.626Z,1.98
2023-04-12T10:43:34.532Z,2.15
2023-04-12T10:46:05.076Z,3.55
2023-04-12T10:48:52.612Z,2.17
2023-04-12T10:51:27.968Z,1.50
2023-04-12T10:54:16.234Z,1.60
2023-04-12T10:56:44.637Z,3.33
2023-04-12T10:59:16.787Z,2.45
2023-04-12T11:02:10.064Z,1.73
2023-04-12T11:04:37.305Z,1.58
2023-04-12T11:07:13.153Z,1.67
2023-04-12T11:09:48.685Z,1.33
2023-04-12T11:12:27.204Z,1.73
2023-04-12T11:15:01.417Z,2.03
2023-04-12T11:17:38.048Z,1.30
2023-04-12T11:20:10.210Z,2.23
2023-04-12T11:22:38.803Z,2.55
2023-04-12T11:25:07.300Z,2.40
2023-04-12T11:27:34.580Z,3.00
2023-04-12T11:30:01.855Z,2.92
2023-04-12T11:32:30.679Z,2.08
2023-04-12T11:34:58.467Z,3.22
2023-04-12T11:37:30.769Z,2.38
2023-04-12T11:39:58.880Z,1.77
2023-04-12T11:42:27.318Z,1.23
2023-04-12T11:44:59.233Z,2.97
2023-04-12T11:47:28.677Z,2.13
2023-04-12T11:49:57.338Z,2.25
2023-04-12T11:52:33.861Z,1.70
2023-04-12T11:55:06.338Z,2.20
2023-04-12T11:57:34.170Z,1.77
2023-04-12T12:00:06.420Z,2.78
2023-04-12T12:02:52.247Z,4.40
2023-04-12T12:05:23.826Z,1.45
2023-04-12T12:07:52.494Z,3.47
2023-04-12T12:10:37.639Z,1.45
2023-04-12T12:13:12.090Z,2.80
2023-04-12T12:15:39.193Z,1.13
2023-04-12T12:18:09.840Z,2.75
2023-04-12T12:20:42.419Z,1.55
2023-04-12T12:23:09.497Z,1.65
2023-04-12T12:25:36.348Z,2.73
2023-04-12T12:28:05.310Z,2.03
2023-04-12T12:30:39.794Z,1.42
2023-04-12T12:33:06.913Z,1.98
2023-04-12T12:35:35.017Z,2.15
2023-04-12T12:38:06.391Z,2.08
2023-04-12T12:40:33.439Z,1.42
2023-04-12T12:43:01.297Z,2.58
2023-04-12T12:45:29.601Z,2.00
2023-04-12T12:48:00.033Z,2.42
2023-04-12T12:50:32.904Z,1.83
2023-04-12T12:53:03.488Z,2.72
2023-04-12T12:55:31.867Z,4.07
2023-04-12T13:00:32.279Z,1.65
2023-04-12T13:02:59.511Z,1.37
2023-04-12T13:05:26.832Z,1.53
2023-04-12T13:07:54.727Z,1.77
2023-04-12T13:10:21.705Z,3.85
2023-04-12T13:12:49.561Z,3.97
2023-04-12T13:17:46.220Z,4.53
2023-04-12T13:20:14.049Z,2.67
2023-04-12T13:22:41.886Z,3.40
2023-04-12T13:25:09.442Z,4.80
2023-04-12T13:27:36.533Z,2.10
2023-04-12T13:30:05.908Z,6.65
2023-04-12T13:32:32.756Z,2.25
2023-04-12T13:34:59.577Z,3.35
2023-04-12T13:37:26.284Z,1.95
2023-04-12T13:39:53.117Z,2.88
2023-04-12T13:42:20.092Z,2.95
2023-04-12T13:44:48.549Z,3.42
2023-04-12T13:47:16.321Z,2.28
2023-04-12T13:49:43.434Z,3.25
2023-04-12T13:52:10.353Z,2.80
2023-04-12T13:54:37.359Z,2.95
2023-04-12T13:57:04.385Z,4.67
2023-04-12T13:59:31.212Z,3.28
2023-04-12T14:01:58.360Z,2.15
2023-04-12T14:04:28.293Z,2.60
2023-04-12T14:06:55.982Z,2.57
2023-04-12T14:09:31.675Z,1.92
2023-04-12T14:12:00.117Z,3.50
2023-04-12T14:14:27.615Z,2.20
2023-04-12T14:16:58.381Z,4.63
2023-04-12T14:19:25.508Z,5.97
2023-04-12T14:21:52.398Z,3.57
2023-04-12T14:24:20.452Z,4.15
2023-04-12T14:26:49.992Z,2.53
2023-04-12T14:29:17.264Z,2.00
2023-04-12T14:31:45.339Z,2.20
2023-04-12T14:34:13.348Z,2.33
2023-04-12T14:36:40.614Z,3.38
2023-04-12T14:39:10.359Z,3.40
2023-04-12T14:41:37.883Z,2.90
2023-04-12T14:44:05.512Z,2.75
2023-04-12T14:46:32.514Z,2.10
2023-04-12T14:49:01.084Z,2.58
2023-04-12T14:51:29.132Z,3.42
2023-04-12T14:53:56.538Z,2.33
2023-04-12T14:56:27.986Z,3.47
2023-04-12T14:58:55.880Z,2.92
2023-04-12T15:01:23.881Z,3.00
2023-04-12T15:03:52.350Z,4.40
2023-04-12T15:06:22.017Z,2.03
2023-04-12T15:08:54.105Z,3.30
2023-04-12T15:11:22.220Z,4.93
2023-04-12T15:13:49.753Z,3.47
2023-04-12T15:16:16.644Z,3.90
2023-04-12T15:18:43.467Z,3.65
2023-04-12T15:21:12.685Z,3.42
2023-04-12T15:23:41.326Z,2.95
2023-04-12T15:26:11.894Z,2.67
2023-04-12T15:28:38.772Z,2.88
2023-04-12T15:31:06.396Z,4.20
2023-04-12T15:33:34.830Z,2.80
2023-04-12T15:36:02.769Z,3.20
2023-04-12T15:38:30.535Z,4.38
2023-04-12T15:41:01.558Z,2.83
2023-04-12T15:43:29.157Z,3.67
2023-04-12T15:45:56.574Z,3.88
2023-04-12T15:48:25.150Z,3.20
2023-04-12T15:50:53.476Z,3.00
2023-04-12T15:53:23.561Z,4.90
2023-04-12T15:55:54.173Z,2.85
2023-04-12T15:58:22.725Z,2.92
2023-04-12T16:00:49.966Z,2.67
2023-04-12T16:03:22.706Z,2.95
2023-04-12T16:05:53.178Z,5.05
2023-04-12T16:08:20.716Z,3.63
2023-04-12T16:10:47.986Z,2.47
2023-04-12T16:13:15.482Z,3.03
2023-04-12T16:15:42.254Z,2.88
2023-04-12T16:18:09.264Z,4.90
2023-04-12T16:20:36.208Z,4.07
2023-04-12T16:23:03.593Z,3.17
2023-04-12T16:25:30.637Z,2.25
2023-04-12T16:27:57.761Z,3.63
2023-04-12T16:30:25.385Z,1.95
2023-04-12T16:32:52.929Z,2.00
2023-04-12T16:35:19.758Z,3.40
2023-04-12T16:37:47.586Z,2.72
2023-04-12T16:40:14.409Z,3.55
2023-04-12T16:42:42.672Z,2.50
2023-04-12T16:45:11.820Z,3.28
2023-04-12T16:47:39.663Z,3.65
2023-04-12T16:50:12.672Z,2.40
2023-04-12T16:52:40.969Z,3.40
2023-04-12T16:55:10.855Z,1.97
2023-04-12T16:57:41.862Z,2.33
2023-04-12T17:00:28.833Z,2.40
2023-04-12T17:02:55.919Z,2.20
2023-04-12T17:05:23.192Z,2.72
2023-04-12T17:07:52.135Z,2.60
2023-04-12T17:10:20.358Z,3.93
2023-04-12T17:12:48.946Z,3.95
2023-04-12T17:15:17.843Z,2.28
2023-04-12T17:17:49.892Z,2.42
2023-04-12T17:20:22.115Z,2.13
2023-04-12T17:22:49.942Z,2.50
2023-04-12T17:25:18.717Z,2.10
2023-04-12T17:27:47.972Z,2.28
2023-04-12T17:30:17.500Z,2.00
2023-04-12T17:32:47.309Z,2.85
2023-04-12T17:35:14.506Z,2.92
2023-04-12T17:37:41.513Z,1.95
2023-04-12T17:40:10.581Z,1.98
2023-04-12T17:42:40.149Z,2.63
2023-04-12T17:45:07.688Z,2.65
2023-04-12T17:47:34.738Z,2.57
2023-04-12T17:50:01.758Z,2.30
2023-04-12T17:52:28.573Z,3.80
2023-04-12T17:54:55.625Z,2.17
2023-04-12T17:57:22.673Z,1.67
2023-04-12T17:59:49.459Z,2.08
2023-04-12T18:02:17.477Z,1.48
2023-04-12T18:04:45.134Z,2.00
2023-04-12T18:07:12.110Z,2.83
2023-04-12T18:09:38.895Z,1.20
2023-04-12T18:12:06.019Z,1.38
2023-04-12T18:14:32.906Z,3.22
2023-04-12T18:16:59.750Z,1.75
2023-04-12T18:19:26.570Z,2.35
2023-04-12T18:21:53.276Z,2.25
2023-04-12T18:24:20.077Z,2.50
2023-04-12T18:26:47.060Z,1.40
2023-04-12T18:29:15.897Z,1.85
2023-04-12T18:31:42.999Z,2.00
2023-04-12T18:34:10.028Z,1.67
2023-04-12T18:36:37.019Z,1.27
2023-04-12T18:39:07.894Z,2.30
2023-04-12T18:41:34.762Z,2.92
2023-04-12T18:44:01.601Z,2.10
2023-04-12T18:46:31.787Z,1.80
2023-04-12T18:48:59.148Z,1.33
2023-04-12T18:51:26.241Z,2.30
2023-04-12T18:53:52.977Z,1.77
2023-04-12T18:56:24.345Z,1.65
2023-04-12T18:58:55.719Z,1.85
2023-04-12T19:01:24.185Z,1.23
2023-04-12T19:03:51.547Z,3.50
2023-04-12T19:06:18.616Z,1.57
2023-04-12T19:08:45.597Z,2.35
2023-04-12T19:11:12.425Z,1.52
2023-04-12T19:13:39.333Z,1.27
2023-04-12T19:16:09.248Z,1.27
2023-04-12T19:18:36.121Z,1.07
2023-04-12T19:21:04.121Z,1.13
2023-04-12T19:23:31.241Z,1.87
2023-04-12T19:25:59.847Z,1.50
2023-04-12T19:28:27.884Z,2.30
2023-04-12T19:30:57.743Z,1.02
2023-04-12T19:33:25.391Z,1.52
2023-04-12T19:35:55.113Z,1.20
2023-04-12T19:38:22.148Z,1.20
2023-04-12T19:40:50.830Z,0.85
2023-04-12T19:43:20.843Z,3.20
2023-04-12T19:45:47.773Z,1.40
2023-04-12T19:48:14.536Z,1.30
2023-04-12T19:50:41.513Z,0.70
2023-04-12T19:53:08.326Z,1.33
2023-04-12T19:55:35.779Z,1.40
2023-04-12T19:58:03.434Z,1.13
2023-04-12T20:00:30.238Z,1.38
2023-04-12T20:02:57.251Z,1.23
2023-04-12T20:05:24.211Z,1.25
2023-04-12T20:07:52.672Z,1.80
2023-04-12T20:10:20.131Z,0.90
2023-04-12T20:12:46.949Z,1.40
2023-04-12T20:15:14.031Z,1.80
2023-04-12T20:17:42.878Z,0.88
2023-04-12T20:20:11.001Z,1.10
2023-04-12T20:22:39.530Z,1.08
2023-04-12T20:25:06.563Z,1.70
2023-04-12T20:27:33.649Z,0.80
2023-04-12T20:30:00.673Z,2.20
2023-04-12T20:32:27.741Z,0.73
2023-04-12T20:34:54.770Z,1.20
2023-04-12T20:37:21.680Z,1.10
2023-04-12T20:39:48.397Z,1.00
2023-04-12T20:42:18.614Z,1.93
2023-04-12T20:44:45.461Z,1.80
2023-04-12T20:47:12.573Z,1.30
2023-04-12T20:49:39.449Z,1.27
2023-04-12T20:52:06.136Z,0.70
2023-04-12T20:54:33.876Z,2.10
2023-04-12T20:57:03.736Z,0.80
2023-04-12T20:59:31.961Z,0.90
2023-04-12T21:01:59.390Z,1.20
2023-04-12T21:04:29.526Z,1.05
2023-04-12T21:06:57.307Z,2.38
2023-04-12T21:09:24.432Z,1.17
2023-04-12T21:11:52.621Z,2.27
2023-04-12T21:14:20.478Z,1.20
2023-04-12T21:16:50.789Z,1.17
2023-04-12T21:19:18.417Z,1.35
2023-04-12T21:21:45.990Z,1.33
2023-04-12T21:24:13.101Z,0.57
2023-04-12T21:26:40.739Z,0.77
2023-04-12T21:29:07.402Z,1.15
2023-04-12T21:31:34.279Z,1.02
2023-04-12T21:34:01.753Z,1.27
2023-04-12T21:36:28.735Z,0.88
2023-04-12T21:38:56.349Z,1.55
2023-04-12T21:41:24.966Z,0.80
2023-04-12T21:43:52.307Z,1.20
2023-04-12T21:46:19.554Z,1.77
2023-04-12T21:48:46.403Z,0.80
2023-04-12T21:51:13.245Z,1.70
2023-04-12T21:53:39.925Z,0.88
2023-04-12T21:56:07.255Z,1.05
2023-04-12T21:58:34.103Z,0.68
2023-04-12T22:01:01.641Z,1.63
2023-04-12T22:03:28.628Z,1.42
2023-04-12T22:06:04.157Z,1.60
2023-04-12T22:08:32.724Z,1.42
2023-04-12T22:11:00.217Z,0.85
2023-04-12T22:13:27.479Z,1.55
2023-04-12T22:15:54.431Z,1.37
2023-04-12T22:18:21.945Z,1.73
2023-04-12T22:20:48.947Z,0.95
2023-04-12T22:23:17.764Z,2.60
2023-04-12T22:25:45.967Z,1.83
2023-04-12T22:28:12.726Z,1.97
2023-04-12T22:30:39.669Z,1.45
2023-04-12T22:33:08.204Z,2.00
2023-04-12T22:35:36.312Z,1.90
2023-04-12T22:38:04.054Z,2.08
2023-04-12T22:40:31.004Z,2.05
2023-04-12T22:42:58.067Z,1.93
2023-04-12T22:45:25.051Z,1.95
2023-04-12T22:47:52.805Z,1.30
2023-04-12T22:50:20.116Z,2.67
2023-04-12T22:52:49.583Z,1.00
2023-04-12T22:55:17.928Z,2.50
2023-04-12T22:57:44.989Z,2.78
2023-04-12T23:00:15.751Z,1.60
2023-04-12T23:02:43.954Z,2.17
2023-04-12T23:05:11.961Z,2.08
2023-04-12T23:07:41.110Z,2.03
2023-04-12T23:10:08.690Z,2.55
2023-04-12T23:12:36.078Z,2.80
2023-04-12T23:15:05.953Z,3.05
2023-04-12T23:17:33.691Z,2.87
2023-04-12T23:20:01.574Z,2.83
2023-04-12T23:22:55.013Z,3.08
2023-04-12T23:25:38.662Z,2.85
2023-04-12T23:28:13.017Z,2.85
2023-04-12T23:30:50.881Z,3.15
2023-04-12T23:33:20.089Z,3.10
2023-04-12T23:35:49.318Z,2.28
2023-04-12T23:38:23.030Z,2.53
2023-04-12T23:40:54.224Z,2.25
2023-04-12T23:43:22.384Z,2.28
2023-04-12T23:45:49.449Z,3.95
2023-04-12T23:48:16.554Z,2.50
2023-04-12T23:50:45.579Z,3.00
2023-04-12T23:53:12.905Z,3.63
2023-04-12T23:55:41.829Z,3.53
2023-04-12T23:58:09.423Z,3.28
